MDT,Max TemperatureF,Mean TemperatureF,Min TemperatureF,Max Dew PointF,MeanDew PointF,Min DewpointF,Max Humidity, Mean Humidity, Min Humidity, Max Sea Level PressureIn, Mean Sea Level PressureIn, Min Sea Level PressureIn, Max VisibilityMiles, Mean VisibilityMiles, Min VisibilityMiles, Max Wind SpeedMPH, Mean Wind SpeedMPH, Max Gust SpeedMPH,PrecipitationIn, CloudCover, Events, WindDirDegrees
2012-3-1,30,21,12,19,14,3,86,69,51,29.88,29.78,29.68,10,9,1,18,7,29,0.00,7,,246
2012-3-2,26,14,3,10,4,-6,85,65,34,30.13,29.91,29.74,10,10,9,17,6,23,0.00,5,,298
2012-3-3,28,12,-4,9,1,-11,85,59,43,30.34,30.25,30.15,10,10,10,24,6,30,0.00,0,,249
2012-3-4,42,22,3,19,10,0,85,62,36,30.42,30.37,30.33,10,10,10,10,2,,0.00,0,,348
2012-3-5,46,27,8,19,12,3,85,59,27,30.38,30.28,30.14,10,10,10,6,1,,0.00,0,,4
2012-3-6,46,29,12,18,12,7,85,54,23,30.13,29.89,29.64,10,10,10,20,2,32,0.00,0,,74
2012-3-7,44,32,19,21,15,9,69,47,23,30.00,29.77,29.66,10,10,9,21,9,28,0.00,2,,255
2012-3-8,44,30,15,19,13,9,86,55,23,30.44,30.28,30.09,10,10,10,7,3,,0.00,0,,286
2012-3-9,48,31,14,16,10,3,80,50,17,30.55,30.44,30.26,10,10,10,18,1,,0.00,0,,62
2012-3-10,51,33,15,25,13,-6,79,49,13,30.29,30.11,29.91,10,10,10,16,3,26,0.00,1,,37
2012-3-11,50,36,21,21,17,9,86,52,22,30.01,29.92,29.87,10,10,10,21,4,29,0.00,1,,252
2012-3-12,51,34,17,19,14,7,86,49,16,30.21,30.12,30.01,10,10,7,20,4,25,0.00,0,,250
2012-3-13,55,36,17,19,13,3,80,49,14,30.21,30.14,30.05,10,10,10,16,3,24,0.00,0,,222
2012-3-14,55,35,15,16,9,-8,80,42,8,30.25,30.19,30.15,10,10,10,13,2,16,0.00,0,,233
2012-3-15,57,37,17,19,13,7,74,46,19,30.37,30.29,30.18,10,10,10,14,2,26,0.00,0,,233
2012-3-16,60,40,19,21,17,10,86,48,15,30.23,30.13,29.99,10,10,10,17,3,24,0.00,0,,228
2012-3-17,59,39,19,19,14,3,80,47,11,30.03,29.94,29.80,10,10,10,20,2,25,0.00,1,,197
2012-3-18,48,38,26,28,21,10,80,52,32,29.82,29.65,29.50,10,10,2,26,13,40,0.00,3,,174
2012-3-19,28,20,12,16,11,5,86,67,43,29.71,29.64,29.60,10,10,2,16,3,16,0.00,4,,273
2012-3-20,39,24,10,12,6,1,79,51,22,30.05,29.94,29.78,10,10,10,18,7,23,0.00,0,,287
2012-3-21,50,32,14,21,14,7,73,49,32,30.16,30.10,30.03,10,10,8,18,4,25,0.00,0,,245
2012-3-22,59,37,15,21,17,1,86,49,11,30.18,30.09,29.98,10,10,10,21,4,30,0.00,0,,249
2012-3-23,66,42,19,19,14,1,80,45,12,30.27,30.19,30.09,10,10,10,16,2,22,0.00,0,,223
2012-3-24,66,42,19,21,15,0,80,43,10,30.32,30.24,30.14,10,10,10,12,2,,0.00,0,,283
2012-3-25,66,45,24,21,18,14,69,41,13,30.27,30.20,30.08,10,10,10,24,5,33,0.00,0,,196
2012-3-26,59,48,37,19,13,5,45,25,12,30.05,29.96,29.89,10,10,10,28,9,45,0.00,0,,266
2012-3-27,60,40,21,16,13,7,63,37,13,30.21,30.14,30.09,10,10,10,16,4,22,0.00,0,,312
2012-3-28,62,40,19,18,12,0,68,40,10,30.23,30.16,30.05,10,10,10,16,3,25,0.00,0,,256
2012-3-29,59,39,19,21,11,7,68,35,13,30.18,30.11,30.05,10,10,10,17,4,25,0.00,0,,252
2012-3-30,62,43,24,21,17,3,64,40,11,30.19,30.13,30.07,10,10,10,21,4,28,0.00,0,,272
2012-3-31,69,48,26,25,17,7,69,38,11,30.22,30.10,29.95,10,10,10,16,3,22,0.00,0,,290